sensor_id;sensor_type;location;lat;lon;timestamp;temperature;humidity
16966;DHT22;8599;47.852;12.070;2023-12-29T00:00:40;7.50;99.90
16966;DHT22;8599;47.852;12.070;2023-12-29T00:03:07;7.50;99.90
16966;DHT22;8599;47.852;12.070;2023-12-29T00:05:36;7.40;99.90
16966;DHT22;8599;47.852;12.070;2023-12-29T00:08:03;7.40;99.90
16966;DHT22;8599;47.852;12.070;2023-12-29T00:10:30;7.40;99.90
16966;DHT22;8599;47.852;12.070;2023-12-29T00:12:57;7.40;99.90
16966;DHT22;8599;47.852;12.070;2023-12-29T00:15:24;7.40;99.90
16966;DHT22;8599;47.852;12.070;2023-12-29T00:17:51;7.30;99.90
16966;DHT22;8599;47.852;12.070;2023-12-29T00:20:18;7.30;99.90
16966;DHT22;8599;47.852;12.070;2023-12-29T00:22:47;7.20;99.90
16966;DHT22;8599;47.852;12.070;2023-12-29T00:25:14;7.20;99.90
16966;DHT22;8599;47.852;12.070;2023-12-29T00:27:41;7.20;99.90
16966;DHT22;8599;47.852;12.070;2023-12-29T00:30:08;7.10;99.90
16966;DHT22;8599;47.852;12.070;2023-12-29T00:32:35;7.10;99.90
16966;DHT22;8599;47.852;12.070;2023-12-29T00:35:02;7.00;99.90
16966;DHT22;8599;47.852;12.070;2023-12-29T00:37:29;7.10;99.90
16966;DHT22;8599;47.852;12.070;2023-12-29T00:39:57;7.00;99.90
16966;DHT22;8599;47.852;12.070;2023-12-29T00:42:24;7.00;99.90
16966;DHT22;8599;47.852;12.070;2023-12-29T00:44:51;7.10;99.90
16966;DHT22;8599;47.852;12.070;2023-12-29T00:47:18;7.10;99.90
16966;DHT22;8599;47.852;12.070;2023-12-29T00:49:45;7.00;99.90
16966;DHT22;8599;47.852;12.070;2023-12-29T00:52:12;7.00;99.90
16966;DHT22;8599;47.852;12.070;2023-12-29T00:54:40;7.00;99.90
16966;DHT22;8599;47.852;12.070;2023-12-29T00:57:08;7.10;99.90
16966;DHT22;8599;47.852;12.070;2023-12-29T00:59:37;7.10;99.90
16966;DHT22;8599;47.852;12.070;2023-12-29T01:02:05;7.00;99.90
16966;DHT22;8599;47.852;12.070;2023-12-29T01:04:32;7.00;99.90
16966;DHT22;8599;47.852;12.070;2023-12-29T01:06:58;7.00;99.90
16966;DHT22;8599;47.852;12.070;2023-12-29T01:09:26;6.90;99.90
16966;DHT22;8599;47.852;12.070;2023-12-29T01:11:53;6.90;99.90
16966;DHT22;8599;47.852;12.070;2023-12-29T01:14:21;6.90;99.90
16966;DHT22;8599;47.852;12.070;2023-12-29T01:16:48;6.90;99.90
16966;DHT22;8599;47.852;12.070;2023-12-29T01:19:15;6.90;99.90
16966;DHT22;8599;47.852;12.070;2023-12-29T01:21:42;6.80;99.90
16966;DHT22;8599;47.852;12.070;2023-12-29T01:24:08;6.80;99.90
16966;DHT22;8599;47.852;12.070;2023-12-29T01:26:37;6.70;99.90
16966;DHT22;8599;47.852;12.070;2023-12-29T01:29:04;6.70;99.90
16966;DHT22;8599;47.852;12.070;2023-12-29T01:31:33;6.60;99.90
16966;DHT22;8599;47.852;12.070;2023-12-29T01:34:00;6.60;99.90
16966;DHT22;8599;47.852;12.070;2023-12-29T01:36:27;6.50;99.90
16966;DHT22;8599;47.852;12.070;2023-12-29T01:38:53;6.40;99.90
16966;DHT22;8599;47.852;12.070;2023-12-29T01:41:20;6.40;99.90
16966;DHT22;8599;47.852;12.070;2023-12-29T01:44:18;6.40;99.90
16966;DHT22;8599;47.852;12.070;2023-12-29T01:46:48;6.40;99.90
16966;DHT22;8599;47.852;12.070;2023-12-29T01:49:16;6.50;99.90
16966;DHT22;8599;47.852;12.070;2023-12-29T01:51:44;6.60;99.90
16966;DHT22;8599;47.852;12.070;2023-12-29T01:54:12;6.60;99.90
16966;DHT22;8599;47.852;12.070;2023-12-29T01:56:39;6.50;99.90
16966;DHT22;8599;47.852;12.070;2023-12-29T01:59:07;6.50;99.90
16966;DHT22;8599;47.852;12.070;2023-12-29T02:01:35;6.50;99.90
16966;DHT22;8599;47.852;12.070;2023-12-29T02:04:03;6.40;99.90
16966;DHT22;8599;47.852;12.070;2023-12-29T02:06:31;6.40;99.90
16966;DHT22;8599;47.852;12.070;2023-12-29T02:08:59;6.30;99.90
16966;DHT22;8599;47.852;12.070;2023-12-29T02:11:26;6.30;99.90
16966;DHT22;8599;47.852;12.070;2023-12-29T02:13:53;6.20;99.90
16966;DHT22;8599;47.852;12.070;2023-12-29T02:16:26;6.30;99.90
16966;DHT22;8599;47.852;12.070;2023-12-29T02:18:56;6.20;99.90
16966;DHT22;8599;47.852;12.070;2023-12-29T02:21:26;6.20;99.90
16966;DHT22;8599;47.852;12.070;2023-12-29T02:23:53;6.20;99.90
16966;DHT22;8599;47.852;12.070;2023-12-29T02:26:22;6.30;99.90
16966;DHT22;8599;47.852;12.070;2023-12-29T02:28:58;6.20;99.90
16966;DHT22;8599;47.852;12.070;2023-12-29T02:31:28;6.20;99.90
16966;DHT22;8599;47.852;12.070;2023-12-29T02:33:57;6.20;99.90
16966;DHT22;8599;47.852;12.070;2023-12-29T02:36:24;6.20;99.90
16966;DHT22;8599;47.852;12.070;2023-12-29T02:38:51;6.20;99.90
16966;DHT22;8599;47.852;12.070;2023-12-29T02:41:20;6.20;99.90
16966;DHT22;8599;47.852;12.070;2023-12-29T02:43:47;6.20;99.90
16966;DHT22;8599;47.852;12.070;2023-12-29T02:46:14;6.20;99.90
16966;DHT22;8599;47.852;12.070;2023-12-29T02:48:41;6.30;99.90
16966;DHT22;8599;47.852;12.070;2023-12-29T02:51:07;6.30;99.90
16966;DHT22;8599;47.852;12.070;2023-12-29T02:53:34;6.30;99.90
16966;DHT22;8599;47.852;12.070;2023-12-29T02:56:01;6.40;99.90
16966;DHT22;8599;47.852;12.070;2023-12-29T02:58:29;6.40;99.90
16966;DHT22;8599;47.852;12.070;2023-12-29T03:00:56;6.40;99.90
16966;DHT22;8599;47.852;12.070;2023-12-29T03:03:23;6.40;99.90
16966;DHT22;8599;47.852;12.070;2023-12-29T03:05:49;6.40;99.90
16966;DHT22;8599;47.852;12.070;2023-12-29T03:08:16;6.40;99.90
16966;DHT22;8599;47.852;12.070;2023-12-29T03:10:43;6.40;99.90
16966;DHT22;8599;47.852;12.070;2023-12-29T03:13:10;6.40;99.90
16966;DHT22;8599;47.852;12.070;2023-12-29T03:15:38;6.50;99.90
16966;DHT22;8599;47.852;12.070;2023-12-29T03:18:05;6.60;99.90
16966;DHT22;8599;47.852;12.070;2023-12-29T03:20:32;6.60;99.90
16966;DHT22;8599;47.852;12.070;2023-12-29T03:22:58;6.50;99.90
16966;DHT22;8599;47.852;12.070;2023-12-29T03:25:25;6.60;99.90
16966;DHT22;8599;47.852;12.070;2023-12-29T03:27:52;6.70;99.90
16966;DHT22;8599;47.852;12.070;2023-12-29T03:30:19;6.80;99.90
16966;DHT22;8599;47.852;12.070;2023-12-29T03:32:47;6.80;99.90
16966;DHT22;8599;47.852;12.070;2023-12-29T03:35:14;6.80;99.90
16966;DHT22;8599;47.852;12.070;2023-12-29T03:37:42;6.80;99.90
16966;DHT22;8599;47.852;12.070;2023-12-29T03:40:09;6.70;99.90
16966;DHT22;8599;47.852;12.070;2023-12-29T03:42:36;6.80;99.90
16966;DHT22;8599;47.852;12.070;2023-12-29T03:45:04;6.80;99.90
16966;DHT22;8599;47.852;12.070;2023-12-29T03:47:31;6.70;99.90
16966;DHT22;8599;47.852;12.070;2023-12-29T03:49:59;6.80;99.90
16966;DHT22;8599;47.852;12.070;2023-12-29T03:52:26;6.80;99.90
16966;DHT22;8599;47.852;12.070;2023-12-29T03:54:53;6.80;99.90
16966;DHT22;8599;47.852;12.070;2023-12-29T03:57:19;6.80;99.90
16966;DHT22;8599;47.852;12.070;2023-12-29T03:59:46;6.70;99.90
16966;DHT22;8599;47.852;12.070;2023-12-29T04:02:13;6.70;99.90
16966;DHT22;8599;47.852;12.070;2023-12-29T04:04:41;6.70;99.90
16966;DHT22;8599;47.852;12.070;2023-12-29T04:07:09;6.60;99.90
16966;DHT22;8599;47.852;12.070;2023-12-29T04:09:36;6.60;99.90
16966;DHT22;8599;47.852;12.070;2023-12-29T04:12:03;6.60;99.90
16966;DHT22;8599;47.852;12.070;2023-12-29T04:14:30;6.60;99.90
16966;DHT22;8599;47.852;12.070;2023-12-29T04:16:56;6.70;99.90
16966;DHT22;8599;47.852;12.070;2023-12-29T04:19:24;6.80;99.90
16966;DHT22;8599;47.852;12.070;2023-12-29T04:21:51;6.90;99.90
16966;DHT22;8599;47.852;12.070;2023-12-29T04:24:19;6.90;99.90
16966;DHT22;8599;47.852;12.070;2023-12-29T04:26:46;6.90;99.90
16966;DHT22;8599;47.852;12.070;2023-12-29T04:29:13;7.20;99.90
16966;DHT22;8599;47.852;12.070;2023-12-29T04:31:40;7.10;99.90
16966;DHT22;8599;47.852;12.070;2023-12-29T04:34:07;7.10;99.90
16966;DHT22;8599;47.852;12.070;2023-12-29T04:36:34;7.10;99.90
16966;DHT22;8599;47.852;12.070;2023-12-29T04:39:01;7.10;99.90
16966;DHT22;8599;47.852;12.070;2023-12-29T04:41:29;7.20;99.90
16966;DHT22;8599;47.852;12.070;2023-12-29T04:43:56;7.00;99.90
16966;DHT22;8599;47.852;12.070;2023-12-29T04:46:23;7.00;99.90
16966;DHT22;8599;47.852;12.070;2023-12-29T04:48:50;7.10;99.90
16966;DHT22;8599;47.852;12.070;2023-12-29T04:51:16;7.10;99.90
16966;DHT22;8599;47.852;12.070;2023-12-29T04:53:44;7.10;99.90
16966;DHT22;8599;47.852;12.070;2023-12-29T04:56:11;7.20;99.90
16966;DHT22;8599;47.852;12.070;2023-12-29T04:58:39;7.20;99.90
16966;DHT22;8599;47.852;12.070;2023-12-29T05:01:06;7.10;99.90
16966;DHT22;8599;47.852;12.070;2023-12-29T05:03:33;7.10;99.90
16966;DHT22;8599;47.852;12.070;2023-12-29T05:06:02;7.00;99.90
16966;DHT22;8599;47.852;12.070;2023-12-29T05:08:28;7.00;99.90
16966;DHT22;8599;47.852;12.070;2023-12-29T05:10:55;7.00;99.90
16966;DHT22;8599;47.852;12.070;2023-12-29T05:13:22;7.00;99.90
16966;DHT22;8599;47.852;12.070;2023-12-29T05:15:50;7.00;99.90
16966;DHT22;8599;47.852;12.070;2023-12-29T05:18:17;7.10;99.90
16966;DHT22;8599;47.852;12.070;2023-12-29T05:20:44;7.00;99.90
16966;DHT22;8599;47.852;12.070;2023-12-29T05:23:11;7.20;99.90
16966;DHT22;8599;47.852;12.070;2023-12-29T05:25:38;7.40;99.90
16966;DHT22;8599;47.852;12.070;2023-12-29T05:28:05;7.30;99.90
16966;DHT22;8599;47.852;12.070;2023-12-29T05:30:31;7.30;99.90
16966;DHT22;8599;47.852;12.070;2023-12-29T05:32:59;7.40;99.90
16966;DHT22;8599;47.852;12.070;2023-12-29T05:35:26;7.40;99.90
16966;DHT22;8599;47.852;12.070;2023-12-29T05:37:53;7.20;99.90
16966;DHT22;8599;47.852;12.070;2023-12-29T05:40:20;7.10;99.90
16966;DHT22;8599;47.852;12.070;2023-12-29T05:42:47;7.10;99.90
16966;DHT22;8599;47.852;12.070;2023-12-29T05:45:16;7.00;99.90
16966;DHT22;8599;47.852;12.070;2023-12-29T05:47:42;7.00;99.90
16966;DHT22;8599;47.852;12.070;2023-12-29T05:50:11;7.00;99.90
16966;DHT22;8599;47.852;12.070;2023-12-29T05:52:38;7.00;99.90
16966;DHT22;8599;47.852;12.070;2023-12-29T05:55:05;6.90;99.90
16966;DHT22;8599;47.852;12.070;2023-12-29T05:57:32;6.90;99.90
16966;DHT22;8599;47.852;12.070;2023-12-29T05:59:59;6.90;99.90
16966;DHT22;8599;47.852;12.070;2023-12-29T06:02:25;6.90;99.90
16966;DHT22;8599;47.852;12.070;2023-12-29T06:04:52;6.90;99.90
16966;DHT22;8599;47.852;12.070;2023-12-29T06:07:21;6.80;99.90
16966;DHT22;8599;47.852;12.070;2023-12-29T06:09:47;6.80;99.90
16966;DHT22;8599;47.852;12.070;2023-12-29T06:12:14;6.80;99.90
16966;DHT22;8599;47.852;12.070;2023-12-29T06:14:41;6.80;99.90
16966;DHT22;8599;47.852;12.070;2023-12-29T06:17:08;6.80;99.90
16966;DHT22;8599;47.852;12.070;2023-12-29T06:19:35;6.80;99.90
16966;DHT22;8599;47.852;12.070;2023-12-29T06:22:02;6.80;99.90
16966;DHT22;8599;47.852;12.070;2023-12-29T06:24:33;6.90;99.90
16966;DHT22;8599;47.852;12.070;2023-12-29T06:27:00;6.90;99.90
16966;DHT22;8599;47.852;12.070;2023-12-29T06:29:26;7.00;99.90
16966;DHT22;8599;47.852;12.070;2023-12-29T06:31:53;7.10;99.90
16966;DHT22;8599;47.852;12.070;2023-12-29T06:34:20;7.00;99.90
16966;DHT22;8599;47.852;12.070;2023-12-29T06:36:47;7.00;99.90
16966;DHT22;8599;47.852;12.070;2023-12-29T06:39:14;6.90;99.90
16966;DHT22;8599;47.852;12.070;2023-12-29T06:41:42;6.90;99.90
16966;DHT22;8599;47.852;12.070;2023-12-29T06:44:09;6.90;99.90
16966;DHT22;8599;47.852;12.070;2023-12-29T06:46:37;6.80;99.90
16966;DHT22;8599;47.852;12.070;2023-12-29T06:49:04;6.90;99.90
16966;DHT22;8599;47.852;12.070;2023-12-29T06:51:31;7.00;99.90
16966;DHT22;8599;47.852;12.070;2023-12-29T06:53:58;7.00;99.90
16966;DHT22;8599;47.852;12.070;2023-12-29T06:56:25;7.20;99.90
16966;DHT22;8599;47.852;12.070;2023-12-29T06:58:54;7.10;99.90
16966;DHT22;8599;47.852;12.070;2023-12-29T07:01:20;7.10;99.90
16966;DHT22;8599;47.852;12.070;2023-12-29T07:03:47;7.00;99.90
16966;DHT22;8599;47.852;12.070;2023-12-29T07:06:14;7.00;99.90
16966;DHT22;8599;47.852;12.070;2023-12-29T07:08:41;7.00;99.90
16966;DHT22;8599;47.852;12.070;2023-12-29T07:11:09;7.00;99.90
16966;DHT22;8599;47.852;12.070;2023-12-29T07:13:37;7.10;99.90
16966;DHT22;8599;47.852;12.070;2023-12-29T07:16:06;7.00;99.90
16966;DHT22;8599;47.852;12.070;2023-12-29T07:18:33;7.00;99.90
16966;DHT22;8599;47.852;12.070;2023-12-29T07:20:59;7.00;99.90
16966;DHT22;8599;47.852;12.070;2023-12-29T07:23:26;7.00;99.90
16966;DHT22;8599;47.852;12.070;2023-12-29T07:25:53;6.90;99.90
16966;DHT22;8599;47.852;12.070;2023-12-29T07:28:20;6.90;99.90
16966;DHT22;8599;47.852;12.070;2023-12-29T07:30:47;7.00;99.90
16966;DHT22;8599;47.852;12.070;2023-12-29T07:33:15;7.00;99.90
16966;DHT22;8599;47.852;12.070;2023-12-29T07:35:42;7.00;99.90
16966;DHT22;8599;47.852;12.070;2023-12-29T07:38:10;7.00;99.90
16966;DHT22;8599;47.852;12.070;2023-12-29T07:40:36;7.10;99.90
16966;DHT22;8599;47.852;12.070;2023-12-29T07:43:04;7.30;99.90
16966;DHT22;8599;47.852;12.070;2023-12-29T07:45:31;7.20;99.90
16966;DHT22;8599;47.852;12.070;2023-12-29T07:47:58;7.20;99.90
16966;DHT22;8599;47.852;12.070;2023-12-29T07:50:26;7.30;99.90
16966;DHT22;8599;47.852;12.070;2023-12-29T07:52:53;7.30;99.90
16966;DHT22;8599;47.852;12.070;2023-12-29T07:55:20;7.20;99.90
16966;DHT22;8599;47.852;12.070;2023-12-29T07:57:46;7.20;99.90
16966;DHT22;8599;47.852;12.070;2023-12-29T08:00:15;7.20;99.90
16966;DHT22;8599;47.852;12.070;2023-12-29T08:02:42;7.20;99.90
16966;DHT22;8599;47.852;12.070;2023-12-29T08:05:10;7.20;99.90
16966;DHT22;8599;47.852;12.070;2023-12-29T08:07:38;7.30;99.90
16966;DHT22;8599;47.852;12.070;2023-12-29T08:10:06;7.30;99.90
16966;DHT22;8599;47.852;12.070;2023-12-29T08:12:34;7.20;99.90
16966;DHT22;8599;47.852;12.070;2023-12-29T08:15:01;7.30;99.90
16966;DHT22;8599;47.852;12.070;2023-12-29T08:17:29;7.30;99.90
16966;DHT22;8599;47.852;12.070;2023-12-29T08:19:56;7.30;99.90
16966;DHT22;8599;47.852;12.070;2023-12-29T08:22:23;7.30;99.90
16966;DHT22;8599;47.852;12.070;2023-12-29T08:24:51;7.40;99.90
16966;DHT22;8599;47.852;12.070;2023-12-29T08:27:23;7.40;99.90
16966;DHT22;8599;47.852;12.070;2023-12-29T08:29:50;7.50;99.90
16966;DHT22;8599;47.852;12.070;2023-12-29T08:32:16;7.50;99.90
16966;DHT22;8599;47.852;12.070;2023-12-29T08:34:44;7.50;99.90
16966;DHT22;8599;47.852;12.070;2023-12-29T08:37:11;7.50;99.90
16966;DHT22;8599;47.852;12.070;2023-12-29T08:39:37;7.50;99.90
16966;DHT22;8599;47.852;12.070;2023-12-29T08:42:06;7.50;99.90
16966;DHT22;8599;47.852;12.070;2023-12-29T08:44:32;7.60;99.90
16966;DHT22;8599;47.852;12.070;2023-12-29T08:46:59;7.60;99.90
16966;DHT22;8599;47.852;12.070;2023-12-29T08:49:26;7.70;99.90
16966;DHT22;8599;47.852;12.070;2023-12-29T08:51:53;7.70;99.90
16966;DHT22;8599;47.852;12.070;2023-12-29T08:54:19;7.70;99.90
16966;DHT22;8599;47.852;12.070;2023-12-29T08:56:46;7.70;99.90
16966;DHT22;8599;47.852;12.070;2023-12-29T08:59:14;7.80;99.90
16966;DHT22;8599;47.852;12.070;2023-12-29T09:01:41;7.70;99.90
16966;DHT22;8599;47.852;12.070;2023-12-29T09:04:08;7.80;99.90
16966;DHT22;8599;47.852;12.070;2023-12-29T09:06:35;7.90;99.90
16966;DHT22;8599;47.852;12.070;2023-12-29T09:09:02;7.90;99.90
16966;DHT22;8599;47.852;12.070;2023-12-29T09:11:28;8.00;99.90
16966;DHT22;8599;47.852;12.070;2023-12-29T09:13:55;8.10;99.90
16966;DHT22;8599;47.852;12.070;2023-12-29T09:16:23;8.20;99.90
16966;DHT22;8599;47.852;12.070;2023-12-29T09:18:50;8.30;99.90
16966;DHT22;8599;47.852;12.070;2023-12-29T09:21:17;8.40;99.90
16966;DHT22;8599;47.852;12.070;2023-12-29T09:23:44;8.50;99.90
16966;DHT22;8599;47.852;12.070;2023-12-29T09:26:10;8.60;99.90
16966;DHT22;8599;47.852;12.070;2023-12-29T09:28:37;8.50;99.90
16966;DHT22;8599;47.852;12.070;2023-12-29T09:31:04;8.50;99.90
16966;DHT22;8599;47.852;12.070;2023-12-29T09:33:32;8.50;99.90
16966;DHT22;8599;47.852;12.070;2023-12-29T09:35:59;8.40;99.90
16966;DHT22;8599;47.852;12.070;2023-12-29T09:38:26;8.40;99.90
16966;DHT22;8599;47.852;12.070;2023-12-29T09:40:53;8.40;99.90
16966;DHT22;8599;47.852;12.070;2023-12-29T09:43:20;8.60;99.90
16966;DHT22;8599;47.852;12.070;2023-12-29T09:45:47;8.60;99.90
16966;DHT22;8599;47.852;12.070;2023-12-29T09:48:16;8.60;99.90
16966;DHT22;8599;47.852;12.070;2023-12-29T09:50:47;8.70;99.90
16966;DHT22;8599;47.852;12.070;2023-12-29T09:53:16;8.80;99.90
16966;DHT22;8599;47.852;12.070;2023-12-29T09:55:45;8.80;99.90
16966;DHT22;8599;47.852;12.070;2023-12-29T09:58:12;8.70;99.90
16966;DHT22;8599;47.852;12.070;2023-12-29T10:00:39;8.70;99.90
16966;DHT22;8599;47.852;12.070;2023-12-29T10:03:07;8.70;99.90
16966;DHT22;8599;47.852;12.070;2023-12-29T10:05:35;8.70;99.90
16966;DHT22;8599;47.852;12.070;2023-12-29T10:08:05;8.80;99.90
16966;DHT22;8599;47.852;12.070;2023-12-29T10:10:35;8.80;99.90
16966;DHT22;8599;47.852;12.070;2023-12-29T10:13:06;8.90;99.90
16966;DHT22;8599;47.852;12.070;2023-12-29T10:15:42;9.00;99.90
16966;DHT22;8599;47.852;12.070;2023-12-29T10:18:16;9.10;99.90
16966;DHT22;8599;47.852;12.070;2023-12-29T10:20:48;9.10;99.90
16966;DHT22;8599;47.852;12.070;2023-12-29T10:23:20;9.10;99.90
16966;DHT22;8599;47.852;12.070;2023-12-29T10:25:48;9.20;99.90
16966;DHT22;8599;47.852;12.070;2023-12-29T10:28:16;9.20;99.90
16966;DHT22;8599;47.852;12.070;2023-12-29T10:30:44;9.30;99.90
16966;DHT22;8599;47.852;12.070;2023-12-29T10:33:10;9.30;99.90
16966;DHT22;8599;47.852;12.070;2023-12-29T10:35:56;9.40;99.90
16966;DHT22;8599;47.852;12.070;2023-12-29T10:38:24;9.40;99.90
16966;DHT22;8599;47.852;12.070;2023-12-29T10:40:51;9.50;99.90
16966;DHT22;8599;47.852;12.070;2023-12-29T10:43:22;9.50;99.90
16966;DHT22;8599;47.852;12.070;2023-12-29T10:45:49;9.60;99.90
16966;DHT22;8599;47.852;12.070;2023-12-29T10:48:21;9.70;99.90
16966;DHT22;8599;47.852;12.070;2023-12-29T10:50:49;9.70;99.90
16966;DHT22;8599;47.852;12.070;2023-12-29T10:53:16;9.80;99.90
16966;DHT22;8599;47.852;12.070;2023-12-29T10:55:44;9.80;99.90
16966;DHT22;8599;47.852;12.070;2023-12-29T10:58:11;9.90;99.90
16966;DHT22;8599;47.852;12.070;2023-12-29T11:00:38;9.90;99.90
16966;DHT22;8599;47.852;12.070;2023-12-29T11:03:05;10.10;99.90
16966;DHT22;8599;47.852;12.070;2023-12-29T11:05:32;10.30;99.90
16966;DHT22;8599;47.852;12.070;2023-12-29T11:07:59;10.40;99.90
16966;DHT22;8599;47.852;12.070;2023-12-29T11:10:26;10.70;99.90
16966;DHT22;8599;47.852;12.070;2023-12-29T11:12:55;10.90;99.90
16966;DHT22;8599;47.852;12.070;2023-12-29T11:15:24;11.30;99.90
16966;DHT22;8599;47.852;12.070;2023-12-29T11:17:51;11.50;99.90
16966;DHT22;8599;47.852;12.070;2023-12-29T11:20:20;11.80;99.90
16966;DHT22;8599;47.852;12.070;2023-12-29T11:22:47;11.90;99.90
16966;DHT22;8599;47.852;12.070;2023-12-29T11:25:14;12.00;99.90
16966;DHT22;8599;47.852;12.070;2023-12-29T11:27:42;12.20;99.90
16966;DHT22;8599;47.852;12.070;2023-12-29T11:30:12;12.10;99.90
16966;DHT22;8599;47.852;12.070;2023-12-29T11:32:45;12.10;99.90
16966;DHT22;8599;47.852;12.070;2023-12-29T11:35:15;12.20;99.90
16966;DHT22;8599;47.852;12.070;2023-12-29T11:38:11;12.30;99.90
16966;DHT22;8599;47.852;12.070;2023-12-29T11:40:46;12.50;99.90
16966;DHT22;8599;47.852;12.070;2023-12-29T11:43:17;12.50;99.90
16966;DHT22;8599;47.852;12.070;2023-12-29T11:45:46;12.50;99.90
16966;DHT22;8599;47.852;12.070;2023-12-29T11:48:12;12.50;99.90
16966;DHT22;8599;47.852;12.070;2023-12-29T11:50:59;12.50;99.90
16966;DHT22;8599;47.852;12.070;2023-12-29T11:53:31;12.50;99.90
16966;DHT22;8599;47.852;12.070;2023-12-29T11:55:59;12.50;99.90
16966;DHT22;8599;47.852;12.070;2023-12-29T11:58:27;12.60;99.90
16966;DHT22;8599;47.852;12.070;2023-12-29T12:00:56;12.70;99.90
16966;DHT22;8599;47.852;12.070;2023-12-29T12:03:24;12.70;99.90
16966;DHT22;8599;47.852;12.070;2023-12-29T12:05:53;12.80;99.90
16966;DHT22;8599;47.852;12.070;2023-12-29T12:08:29;12.80;99.90
16966;DHT22;8599;47.852;12.070;2023-12-29T12:10:57;12.70;99.90
16966;DHT22;8599;47.852;12.070;2023-12-29T12:13:42;12.70;99.90
16966;DHT22;8599;47.852;12.070;2023-12-29T12:16:46;12.70;99.90
16966;DHT22;8599;47.852;12.070;2023-12-29T12:19:13;12.90;99.90
16966;DHT22;8599;47.852;12.070;2023-12-29T12:21:41;12.90;99.90
16966;DHT22;8599;47.852;12.070;2023-12-29T12:24:08;13.00;99.90
16966;DHT22;8599;47.852;12.070;2023-12-29T12:26:35;12.90;99.90
16966;DHT22;8599;47.852;12.070;2023-12-29T12:29:02;13.10;99.90
16966;DHT22;8599;47.852;12.070;2023-12-29T12:31:31;13.00;99.90
16966;DHT22;8599;47.852;12.070;2023-12-29T12:33:58;12.90;99.90
16966;DHT22;8599;47.852;12.070;2023-12-29T12:36:26;12.90;99.90
16966;DHT22;8599;47.852;12.070;2023-12-29T12:38:54;12.90;99.90
16966;DHT22;8599;47.852;12.070;2023-12-29T12:41:21;13.00;99.90
16966;DHT22;8599;47.852;12.070;2023-12-29T12:43:57;13.00;99.90
16966;DHT22;8599;47.852;12.070;2023-12-29T12:46:26;13.00;99.90
16966;DHT22;8599;47.852;12.070;2023-12-29T12:48:54;13.10;99.90
16966;DHT22;8599;47.852;12.070;2023-12-29T12:51:21;13.10;99.90
16966;DHT22;8599;47.852;12.070;2023-12-29T12:53:48;13.00;99.90
16966;DHT22;8599;47.852;12.070;2023-12-29T12:56:17;13.00;99.90
16966;DHT22;8599;47.852;12.070;2023-12-29T12:58:45;13.10;99.90
16966;DHT22;8599;47.852;12.070;2023-12-29T13:01:12;13.10;99.90
16966;DHT22;8599;47.852;12.070;2023-12-29T13:03:39;13.00;99.90
16966;DHT22;8599;47.852;12.070;2023-12-29T13:06:08;12.90;99.90
16966;DHT22;8599;47.852;12.070;2023-12-29T13:08:35;12.90;99.90
16966;DHT22;8599;47.852;12.070;2023-12-29T13:11:02;13.00;99.90
16966;DHT22;8599;47.852;12.070;2023-12-29T13:13:37;12.90;99.90
16966;DHT22;8599;47.852;12.070;2023-12-29T13:16:04;12.80;99.90
16966;DHT22;8599;47.852;12.070;2023-12-29T13:18:31;12.80;99.90
16966;DHT22;8599;47.852;12.070;2023-12-29T13:20:58;12.70;99.90
16966;DHT22;8599;47.852;12.070;2023-12-29T13:23:28;12.50;99.90
16966;DHT22;8599;47.852;12.070;2023-12-29T13:25:57;12.50;99.90
16966;DHT22;8599;47.852;12.070;2023-12-29T13:28:24;12.70;99.90
16966;DHT22;8599;47.852;12.070;2023-12-29T13:30:52;12.90;99.90
16966;DHT22;8599;47.852;12.070;2023-12-29T13:33:25;12.70;99.90
16966;DHT22;8599;47.852;12.070;2023-12-29T13:35:54;12.70;99.90
16966;DHT22;8599;47.852;12.070;2023-12-29T13:38:29;12.60;99.90
16966;DHT22;8599;47.852;12.070;2023-12-29T13:41:03;12.50;99.90
16966;DHT22;8599;47.852;12.070;2023-12-29T13:43:32;12.40;99.90
16966;DHT22;8599;47.852;12.070;2023-12-29T13:46:00;12.10;99.90
16966;DHT22;8599;47.852;12.070;2023-12-29T13:48:29;11.70;99.90
16966;DHT22;8599;47.852;12.070;2023-12-29T13:50:56;11.60;99.90
16966;DHT22;8599;47.852;12.070;2023-12-29T13:53:23;11.30;99.90
16966;DHT22;8599;47.852;12.070;2023-12-29T13:55:51;11.10;99.90
16966;DHT22;8599;47.852;12.070;2023-12-29T13:58:18;11.00;99.90
16966;DHT22;8599;47.852;12.070;2023-12-29T14:00:46;10.90;99.90
16966;DHT22;8599;47.852;12.070;2023-12-29T14:03:23;10.90;99.90
16966;DHT22;8599;47.852;12.070;2023-12-29T14:05:56;10.80;99.90
16966;DHT22;8599;47.852;12.070;2023-12-29T14:08:25;10.70;99.90
16966;DHT22;8599;47.852;12.070;2023-12-29T14:10:54;10.70;99.90
16966;DHT22;8599;47.852;12.070;2023-12-29T14:13:21;10.70;99.90
16966;DHT22;8599;47.852;12.070;2023-12-29T14:15:48;10.60;99.90
16966;DHT22;8599;47.852;12.070;2023-12-29T14:18:37;10.60;99.90
16966;DHT22;8599;47.852;12.070;2023-12-29T14:21:20;10.50;99.90
16966;DHT22;8599;47.852;12.070;2023-12-29T14:24:07;10.50;99.90
16966;DHT22;8599;47.852;12.070;2023-12-29T14:26:36;10.50;99.90
16966;DHT22;8599;47.852;12.070;2023-12-29T14:29:04;10.50;99.90
16966;DHT22;8599;47.852;12.070;2023-12-29T14:31:34;10.40;99.90
16966;DHT22;8599;47.852;12.070;2023-12-29T14:34:01;10.40;99.90
16966;DHT22;8599;47.852;12.070;2023-12-29T14:36:28;10.40;99.90
16966;DHT22;8599;47.852;12.070;2023-12-29T14:38:55;10.30;99.90
16966;DHT22;8599;47.852;12.070;2023-12-29T14:41:22;10.30;99.90
16966;DHT22;8599;47.852;12.070;2023-12-29T14:43:50;10.30;99.90
16966;DHT22;8599;47.852;12.070;2023-12-29T14:46:17;10.20;99.90
16966;DHT22;8599;47.852;12.070;2023-12-29T14:48:44;10.20;99.90
16966;DHT22;8599;47.852;12.070;2023-12-29T14:51:12;10.30;99.90
16966;DHT22;8599;47.852;12.070;2023-12-29T14:53:38;10.70;99.90
16966;DHT22;8599;47.852;12.070;2023-12-29T14:56:06;10.80;99.90
16966;DHT22;8599;47.852;12.070;2023-12-29T14:58:33;11.00;99.90
16966;DHT22;8599;47.852;12.070;2023-12-29T15:01:03;11.10;99.90
16966;DHT22;8599;47.852;12.070;2023-12-29T15:03:30;11.10;99.90
16966;DHT22;8599;47.852;12.070;2023-12-29T15:05:57;11.30;99.90
16966;DHT22;8599;47.852;12.070;2023-12-29T15:08:24;11.20;99.90
16966;DHT22;8599;47.852;12.070;2023-12-29T15:10:53;11.20;99.90
16966;DHT22;8599;47.852;12.070;2023-12-29T15:13:20;11.40;99.90
16966;DHT22;8599;47.852;12.070;2023-12-29T15:15:47;11.40;99.90
16966;DHT22;8599;47.852;12.070;2023-12-29T15:18:15;11.40;99.90
16966;DHT22;8599;47.852;12.070;2023-12-29T15:20:42;11.30;99.90
16966;DHT22;8599;47.852;12.070;2023-12-29T15:23:09;11.30;99.90
16966;DHT22;8599;47.852;12.070;2023-12-29T15:25:36;11.20;99.90
16966;DHT22;8599;47.852;12.070;2023-12-29T15:28:03;11.30;99.90
16966;DHT22;8599;47.852;12.070;2023-12-29T15:30:30;11.20;99.90
16966;DHT22;8599;47.852;12.070;2023-12-29T15:32:57;11.00;99.90
16966;DHT22;8599;47.852;12.070;2023-12-29T15:35:25;10.90;99.90
16966;DHT22;8599;47.852;12.070;2023-12-29T15:37:54;10.80;99.90
16966;DHT22;8599;47.852;12.070;2023-12-29T15:40:20;10.70;99.90
16966;DHT22;8599;47.852;12.070;2023-12-29T15:42:47;10.60;99.90
16966;DHT22;8599;47.852;12.070;2023-12-29T15:45:14;10.40;99.90
16966;DHT22;8599;47.852;12.070;2023-12-29T15:47:42;10.10;99.90